• Join FlightAware (Why Join?)
  • Login
  • US Flag 
Gobble Gobble! 
10:06PM EST


 

Airport Tracker/Info


-or-


 

Live Flight TrackerFlight Track Log ✈ VH-KEZ ✈ 21-Jun-2013 ✈ YELI - YBRM / BME

Flight Track Log - Related Links

Times and Time Zones

All times are in EDT time to prevent confusion due to time zone crossing. See the VH-KEZ flight status page for this flight to view local times or setup timezone preferences in your user account.

Time Position Orientation Groundspeed Altitude Reporting Facility
EDT Latitude Longitude Course Direction KTS MPH feet Rate Location/Type
04:00AM -17.5889 124.6749 360° North 300  Level Aus ATC (Calculated)
04:01AM -17.5889 124.6749 270° West 300  Level Aus ATC (Calculated)
04:01AM -17.5889 124.6749 261° West 300  Level Aus ATC (Calculated)
04:03AM -17.5978 124.6168 261° West  Level FlightAware Approximate
04:04AM -17.6042 124.5747 261° West  Level FlightAware Approximate
04:04AM -17.6121 124.5227 81° East 300  Level Aus ATC (Calculated)
04:05AM -17.6106 124.5327 261° West  Level FlightAware Approximate
04:06AM -17.6191 124.4765 261° West  Level FlightAware Approximate
04:06AM -17.6229 124.4513 261° West 300  Level Aus ATC (Calculated)
04:07AM -17.6255 124.4344 261° West  Level FlightAware Approximate
04:08AM -17.6321 124.3911 261° West  Level FlightAware Approximate
04:08AM -17.6334 124.3822 261° West 300  Level Aus ATC (Calculated)
04:09AM -17.6384 124.3490 261° West  Level FlightAware Approximate
04:10AM -17.6432 124.3170 261° West  Level FlightAware Approximate
04:11AM -17.6496 124.2749 261° West  Level FlightAware Approximate
04:12AM -17.6559 124.2329 261° West  Level FlightAware Approximate
04:13AM -17.6623 124.1908 261° West  Level FlightAware Approximate
04:14AM -17.6686 124.1488 261° West  Level FlightAware Approximate
04:14AM -17.6738 124.1142 261° West 300  Level Aus ATC (Calculated)
04:15AM -17.6826 124.0556 261° West 300  Level Aus ATC (Calculated)
04:16AM -17.6865 124.0294 261° West  Level FlightAware Approximate
04:17AM -17.6924 123.9900 261° West  Level FlightAware Approximate
04:18AM -17.6988 123.9472 261° West  Level FlightAware Approximate
04:19AM -17.7052 123.9045 261° West  Level FlightAware Approximate
04:20AM -17.7115 123.8617 261° West  Level FlightAware Approximate
04:21AM -17.7179 123.8189 261° West  Level FlightAware Approximate
04:22AM -17.7242 123.7761 261° West  Level FlightAware Approximate
04:23AM -17.7306 123.7334 261° West  Level FlightAware Approximate
04:24AM -17.7369 123.6906 261° West  Level FlightAware Approximate
04:25AM -17.7432 123.6478 261° West  Level FlightAware Approximate
04:26AM -17.7495 123.6050 261° West  Level FlightAware Approximate
04:27AM -17.7558 123.5622 261° West  Level FlightAware Approximate
04:27AM -17.7668 123.4873 261° West 300  Level Aus ATC (Calculated)
04:29AM -17.7789 123.4046 261° West  Level FlightAware Approximate
04:30AM -17.7852 123.3618 261° West  Level FlightAware Approximate
04:30AM -17.7897 123.3309 261° West 300  Level Aus ATC (Calculated)
04:32AM -17.8004 123.2574 261° West  Level FlightAware Approximate
04:33AM -17.8066 123.2146 261° West  Level FlightAware Approximate
04:33AM -17.8096 123.1941 261° West 300  Level Aus ATC (Calculated)
04:35AM -17.8184 123.1334 261° West  Level FlightAware Approximate
04:36AM -17.8246 123.0906 261° West  Level FlightAware Approximate
04:37AM -17.8308 123.0477 261° West  Level FlightAware Approximate
04:38AM -17.8370 123.0049 261° West  Level FlightAware Approximate
04:39AM -17.8431 122.9621 261° West  Level FlightAware Approximate
04:40AM -17.8493 122.9192 261° West  Level FlightAware Approximate
04:41AM -17.8554 122.8764 261° West  Level FlightAware Approximate
04:42AM -17.8616 122.8335 261° West  Level FlightAware Approximate
04:42AM -17.8785 122.7149 81° East 300  Level Aus ATC (Calculated)
04:43AM -17.8677 122.7907 261° West  Level FlightAware Approximate
04:44AM -17.8853 122.6678 261° West  Level FlightAware Approximate
04:44AM -17.8956 122.5950 82° East 300  Level Aus ATC (Calculated)
04:45AM -17.8913 122.6249 261° West  Level FlightAware Approximate
04:46AM -17.9025 122.5465 262° West  Level FlightAware Approximate
04:47AM -17.9085 122.5036 262° West  Level FlightAware Approximate
04:48AM -17.9146 122.4607 262° West  Level FlightAware Approximate
04:49AM -17.9206 122.4178 262° West  Level FlightAware Approximate
04:50AM -17.9267 122.3750 262° West  Level FlightAware Approximate
04:51AM -17.9327 122.3321 262° West  Level FlightAware Approximate
04:52AM -17.9387 122.2892 262° West  Level FlightAware Approximate
04:53AM -17.9448 122.2463 262° West  Level FlightAware Approximate
04:53AM -17.9480 122.2315 246° West 100  Level Aus ATC (Calculated)
04:53AM -17.9496 122.2277 38° Northeast 100  Level Aus ATC (Calculated)
04:55AM -17.9447 122.2317 65° Northeast  Level Estimated
04:56AM -17.9447 122.2317 115° Southeast  Level Estimated
04:57AM -17.9496 122.2277 245° Southwest  Level FlightAware Approximate
04:58AM -17.9447 122.2317 245° Southwest  Level Estimated
04:59AM -17.9496 122.2277 245° Southwest  Level FlightAware Approximate
05:00AM -17.9447 122.2317 245° Southwest  Level Estimated
05:01AM -17.9496 122.2277 245° Southwest  Level FlightAware Approximate
05:02AM -17.9447 122.2317 245° Southwest  Level Estimated
05:03AM -17.9496 122.2277 245° Southwest  Level FlightAware Approximate
05:04AM -17.9447 122.2317 245° Southwest  Level Estimated
05:05AM -17.9496 122.2277 245° Southwest  Level FlightAware Approximate
05:06AM -17.9447 122.2317 245° Southwest  Level Estimated
05:07AM -17.9496 122.2277 245° Southwest  Level FlightAware Approximate
05:08AM -17.9447 122.2317 245° Southwest  Level Estimated
05:09AM -17.9496 122.2277 245° Southwest  Level FlightAware Approximate
05:10AM -17.9447 122.2317 245° Southwest  Level Estimated
05:11AM -17.9496 122.2277 245° Southwest  Level FlightAware Approximate
05:12AM -17.9447 122.2317 245° Southwest  Level Estimated
05:13AM -17.9496 122.2277 245° Southwest  Level FlightAware Approximate
05:14AM -17.9447 122.2317 245° Southwest  Level Estimated
05:15AM -17.9496 122.2277 245° Southwest  Level FlightAware Approximate